createdAt,value
2023-04-30T00:00:38.612Z,10.36
2023-04-30T00:03:05.333Z,10.94
2023-04-30T00:05:32.077Z,11.58
2023-04-30T00:07:58.700Z,12.07
2023-04-30T00:10:25.330Z,12.29
2023-04-30T00:12:52.002Z,11.86
2023-04-30T00:15:18.644Z,11.35
2023-04-30T00:17:45.863Z,10.98
2023-04-30T00:20:13.117Z,10.73
2023-04-30T00:22:39.849Z,10.52
2023-04-30T00:25:06.762Z,10.48
2023-04-30T00:27:33.336Z,11.02
2023-04-30T00:29:59.957Z,11.61
2023-04-30T00:32:26.543Z,12.06
2023-04-30T00:34:53.324Z,12.29
2023-04-30T00:37:19.846Z,11.92
2023-04-30T00:39:46.393Z,11.42
2023-04-30T00:42:12.958Z,11.05
2023-04-30T00:44:39.482Z,10.77
2023-04-30T00:47:06.260Z,10.68
2023-04-30T00:49:33.251Z,11.19
2023-04-30T00:51:59.837Z,11.79
2023-04-30T00:54:26.731Z,12.27
2023-04-30T00:56:54.335Z,12.63
2023-04-30T00:59:21.192Z,12.92
2023-04-30T01:01:48.394Z,13.08
2023-04-30T01:04:15.568Z,12.67
2023-04-30T01:06:43.401Z,12.20
2023-04-30T01:09:10.538Z,11.82
2023-04-30T01:12:07.462Z,11.69
2023-04-30T01:14:50.043Z,12.33
2023-04-30T01:17:28.368Z,12.97
2023-04-30T01:19:56.242Z,13.42
2023-04-30T01:22:25.974Z,13.62
2023-04-30T01:25:14.426Z,13.18
2023-04-30T01:28:30.381Z,12.57
2023-04-30T01:30:57.081Z,12.02
2023-04-30T01:33:23.846Z,11.70
2023-04-30T01:36:19.246Z,11.41
2023-04-30T01:39:06.692Z,11.41
2023-04-30T01:41:43.941Z,12.15
2023-04-30T01:44:26.061Z,12.77
2023-04-30T01:47:05.694Z,13.21
2023-04-30T01:49:44.494Z,13.37
2023-04-30T01:52:40.437Z,12.83
2023-04-30T01:55:24.278Z,12.23
2023-04-30T01:57:59.979Z,12.08
2023-04-30T02:00:28.624Z,12.66
2023-04-30T02:02:55.727Z,13.20
2023-04-30T02:05:22.488Z,13.59
2023-04-30T02:07:51.547Z,13.90
2023-04-30T02:10:21.610Z,14.16
2023-04-30T02:12:48.566Z,14.39
2023-04-30T02:18:06.782Z,13.82
2023-04-30T02:20:33.518Z,13.23
2023-04-30T02:23:00.595Z,12.90
2023-04-30T02:25:27.262Z,13.27
2023-04-30T02:27:53.809Z,13.79
2023-04-30T02:30:21.031Z,14.16
2023-04-30T02:32:48.259Z,14.44
2023-04-30T02:35:15.108Z,14.66
2023-04-30T02:37:41.750Z,14.70
2023-04-30T02:40:08.944Z,14.13
2023-04-30T02:42:35.498Z,13.48
2023-04-30T02:45:03.661Z,12.98
2023-04-30T02:47:31.443Z,12.73
2023-04-30T02:49:58.024Z,13.17
2023-04-30T02:52:25.852Z,13.65
2023-04-30T02:54:52.450Z,14.00
2023-04-30T02:57:18.988Z,14.27
2023-04-30T02:59:46.348Z,14.45
2023-04-30T03:02:13.858Z,14.47
2023-04-30T03:04:40.717Z,13.86
2023-04-30T03:07:07.267Z,13.19
2023-04-30T03:09:34.698Z,12.69
2023-04-30T03:12:02.640Z,12.49
2023-04-30T03:14:30.402Z,12.94
2023-04-30T03:16:56.993Z,13.45
2023-04-30T03:19:25.440Z,13.82
2023-04-30T03:21:52.557Z,14.07
2023-04-30T03:24:19.509Z,14.25
2023-04-30T03:26:46.830Z,14.41
2023-04-30T03:29:13.682Z,14.55
2023-04-30T03:31:40.361Z,14.53
2023-04-30T03:34:07.135Z,13.94
2023-04-30T03:36:34.850Z,13.28
2023-04-30T03:39:02.366Z,12.94
2023-04-30T03:41:28.932Z,13.32
2023-04-30T03:43:55.667Z,13.81
2023-04-30T03:46:22.552Z,14.21
2023-04-30T03:48:49.235Z,14.53
2023-04-30T03:51:15.800Z,14.79
2023-04-30T03:53:42.406Z,15.06
2023-04-30T03:56:08.991Z,15.30
2023-04-30T03:58:35.627Z,15.46
2023-04-30T04:01:02.217Z,15.54
2023-04-30T04:03:28.822Z,15.57
2023-04-30T04:05:55.495Z,15.72
2023-04-30T04:08:22.682Z,15.85
2023-04-30T04:10:49.217Z,15.96
2023-04-30T04:13:15.795Z,16.04
2023-04-30T04:15:42.441Z,16.10
2023-04-30T04:18:09.120Z,16.15
2023-04-30T04:20:35.751Z,16.23
2023-04-30T04:23:02.672Z,16.28
2023-04-30T04:25:29.255Z,16.35
2023-04-30T04:27:55.827Z,16.35
2023-04-30T04:30:22.449Z,16.22
2023-04-30T04:32:51.781Z,15.61
2023-04-30T04:35:19.245Z,14.93
2023-04-30T04:37:45.974Z,14.61
2023-04-30T04:40:13.827Z,15.00
2023-04-30T04:42:40.771Z,15.39
2023-04-30T04:45:08.380Z,15.58
2023-04-30T04:47:35.153Z,15.65
2023-04-30T04:50:02.221Z,15.73
2023-04-30T04:52:29.172Z,15.84
2023-04-30T04:54:55.984Z,15.92
2023-04-30T04:57:22.605Z,15.89
2023-04-30T04:59:49.308Z,15.23
2023-04-30T05:02:15.934Z,14.46
2023-04-30T05:04:42.517Z,14.01
2023-04-30T05:07:09.131Z,14.29
2023-04-30T05:09:35.730Z,14.76
2023-04-30T05:12:02.643Z,15.11
2023-04-30T05:14:29.237Z,15.18
2023-04-30T05:16:55.857Z,14.62
2023-04-30T05:19:22.446Z,14.06
2023-04-30T05:21:49.103Z,13.60
2023-04-30T05:24:15.793Z,13.18
2023-04-30T05:26:42.304Z,12.84
2023-04-30T05:29:08.831Z,12.73
2023-04-30T05:31:36.136Z,13.27
2023-04-30T05:34:02.650Z,13.86
2023-04-30T05:36:29.316Z,14.20
2023-04-30T05:38:55.870Z,13.89
2023-04-30T05:41:22.439Z,13.50
2023-04-30T05:43:48.973Z,13.19
2023-04-30T05:46:15.569Z,13.00
2023-04-30T05:48:42.180Z,12.85
2023-04-30T05:51:10.741Z,12.70
2023-04-30T05:53:37.390Z,12.60
2023-04-30T05:56:03.941Z,12.52
2023-04-30T05:58:30.570Z,12.61
2023-04-30T06:00:57.196Z,13.44
2023-04-30T06:03:23.756Z,14.44
2023-04-30T06:05:51.643Z,14.62
2023-04-30T06:08:18.557Z,14.44
2023-04-30T06:10:45.190Z,14.44
2023-04-30T06:13:11.756Z,14.49
2023-04-30T06:15:38.370Z,14.55
2023-04-30T06:18:05.105Z,14.73
2023-04-30T06:20:31.787Z,14.89
2023-04-30T06:22:58.511Z,14.96
2023-04-30T06:25:25.136Z,15.12
2023-04-30T06:27:54.122Z,15.38
2023-04-30T06:30:21.052Z,15.63
2023-04-30T06:32:47.648Z,15.82
2023-04-30T06:35:15.153Z,16.04
2023-04-30T06:37:41.899Z,16.25
2023-04-30T06:40:09.048Z,16.24
2023-04-30T06:42:36.052Z,16.09
2023-04-30T06:45:03.646Z,15.97
2023-04-30T06:47:34.757Z,16.31
2023-04-30T06:50:02.415Z,16.94
2023-04-30T06:52:29.094Z,17.65
2023-04-30T06:54:55.844Z,18.45
2023-04-30T06:57:22.776Z,19.11
2023-04-30T06:59:49.311Z,19.49
2023-04-30T07:02:16.247Z,20.16
2023-04-30T07:04:42.796Z,21.04
2023-04-30T07:07:09.663Z,21.90
2023-04-30T07:09:39.401Z,23.05
2023-04-30T07:12:06.202Z,24.43
2023-04-30T07:14:32.831Z,25.82
2023-04-30T07:17:02.276Z,27.09
2023-04-30T07:19:28.797Z,28.29
2023-04-30T07:21:55.461Z,29.28
2023-04-30T07:24:22.078Z,29.85
2023-04-30T07:26:48.668Z,30.21
2023-04-30T07:29:15.299Z,30.55
2023-04-30T07:31:47.682Z,30.87
2023-04-30T07:34:14.300Z,31.26
2023-04-30T07:36:41.133Z,31.40
2023-04-30T07:39:08.177Z,31.32
2023-04-30T07:41:34.773Z,31.31
2023-04-30T07:44:01.378Z,31.48
2023-04-30T07:46:28.245Z,31.70
2023-04-30T07:48:54.934Z,31.81
2023-04-30T07:51:21.792Z,32.15
2023-04-30T07:53:50.917Z,32.71
2023-04-30T07:56:17.519Z,33.16
2023-04-30T07:58:44.153Z,33.53
2023-04-30T08:01:10.947Z,34.07
2023-04-30T08:03:37.658Z,34.65
2023-04-30T08:06:05.803Z,35.24
2023-04-30T08:08:32.377Z,35.93
2023-04-30T08:10:58.905Z,36.19
2023-04-30T08:13:25.456Z,36.23
2023-04-30T08:15:52.046Z,36.29
2023-04-30T08:18:18.652Z,36.29
2023-04-30T08:20:45.371Z,36.42
2023-04-30T08:23:11.981Z,36.45
2023-04-30T08:25:38.501Z,36.48
2023-04-30T08:28:06.710Z,36.31
2023-04-30T08:30:33.341Z,35.85
2023-04-30T08:33:00.348Z,35.73
2023-04-30T08:35:26.954Z,35.78
2023-04-30T08:37:54.084Z,35.92
2023-04-30T08:40:21.951Z,36.17
2023-04-30T08:43:05.233Z,36.31
2023-04-30T08:45:33.552Z,36.50
2023-04-30T08:48:03.987Z,36.64
2023-04-30T08:50:31.266Z,36.81
2023-04-30T08:52:59.642Z,36.97
2023-04-30T08:55:29.977Z,37.22
2023-04-30T08:57:56.527Z,37.57
2023-04-30T09:00:23.261Z,37.62
2023-04-30T09:02:50.377Z,37.65
2023-04-30T09:05:17.047Z,38.12
2023-04-30T09:07:56.018Z,39.01
2023-04-30T09:10:33.817Z,39.61
2023-04-30T09:13:08.413Z,39.96
2023-04-30T09:15:37.590Z,39.97
2023-04-30T09:18:10.030Z,40.09
2023-04-30T09:20:37.307Z,40.29
2023-04-30T09:23:09.145Z,40.32
2023-04-30T09:25:43.066Z,40.48
2023-04-30T09:28:11.440Z,40.66
2023-04-30T09:30:39.166Z,40.75
2023-04-30T09:33:06.977Z,40.41
2023-04-30T09:35:42.656Z,40.06
